createdAt,value
2019-05-16T00:00:45.363Z,1022.11
2019-05-16T00:01:49.654Z,1022.12
2019-05-16T00:02:53.912Z,1022.09
2019-05-16T00:03:58.186Z,1022.09
2019-05-16T00:05:02.442Z,1022.09
2019-05-16T00:06:08.594Z,1022.07
2019-05-16T00:07:10.980Z,1022.05
2019-05-16T00:08:15.261Z,1022.04
2019-05-16T00:09:19.416Z,1022.01
2019-05-16T00:10:23.656Z,1022.00
2019-05-16T00:11:28.205Z,1021.97
2019-05-16T00:12:32.120Z,1021.96
2019-05-16T00:13:38.275Z,1021.98
2019-05-16T00:14:40.700Z,1021.95
2019-05-16T00:15:44.853Z,1021.97
2019-05-16T00:16:49.118Z,1021.93
2019-05-16T00:17:53.401Z,1021.91
2019-05-16T00:18:58.303Z,1021.90
2019-05-16T00:20:02.040Z,1021.89
2019-05-16T00:21:08.558Z,1021.89
2019-05-16T00:22:10.561Z,1021.89
2019-05-16T00:23:14.798Z,1021.89
2019-05-16T00:24:19.078Z,1021.88
2019-05-16T00:25:23.570Z,1021.88
2019-05-16T00:26:28.162Z,1021.89
2019-05-16T00:27:31.875Z,1021.86
2019-05-16T00:28:38.041Z,1021.84
2019-05-16T00:29:40.403Z,1021.83
2019-05-16T00:30:44.598Z,1021.82
2019-05-16T00:31:48.860Z,1021.77
2019-05-16T00:32:53.080Z,1021.80
2019-05-16T00:33:57.865Z,1021.76
2019-05-16T00:35:01.558Z,1021.74
2019-05-16T00:36:06.900Z,1021.72
2019-05-16T00:37:10.089Z,1021.72
2019-05-16T00:38:14.282Z,1021.71
2019-05-16T00:39:18.882Z,1021.71
2019-05-16T00:40:22.713Z,1021.70
2019-05-16T00:41:28.315Z,1021.70
2019-05-16T00:42:31.220Z,1021.69
2019-05-16T00:43:37.763Z,1021.68
2019-05-16T00:44:39.740Z,1021.67
2019-05-16T00:45:43.872Z,1021.67
2019-05-16T00:46:48.594Z,1021.65
2019-05-16T00:47:52.381Z,1021.64
2019-05-16T00:48:58.763Z,1021.60
2019-05-16T00:50:00.942Z,1021.59
2019-05-16T00:51:07.663Z,1021.58
2019-05-16T00:52:09.459Z,1021.56
2019-05-16T00:53:13.800Z,1021.56
2019-05-16T00:54:18.580Z,1021.56
2019-05-16T00:55:22.177Z,1021.53
2019-05-16T00:56:28.765Z,1021.52
2019-05-16T00:57:30.760Z,1021.51
2019-05-16T00:58:34.922Z,1021.49
2019-05-16T00:59:39.125Z,1021.48
2019-05-16T01:00:43.354Z,1021.45
2019-05-16T01:01:50.120Z,1021.46
2019-05-16T01:02:51.890Z,1021.47
2019-05-16T01:03:58.464Z,1021.47
2019-05-16T01:05:00.479Z,1021.48
2019-05-16T01:06:15.633Z,1021.45
2019-05-16T01:07:08.977Z,1021.45
2019-05-16T01:08:13.230Z,1021.48
2019-05-16T01:09:18.816Z,1021.48
2019-05-16T01:10:21.786Z,1021.45
2019-05-16T01:11:27.777Z,1021.45
2019-05-16T01:12:30.251Z,1021.41
2019-05-16T01:13:34.600Z,1021.43
2019-05-16T01:14:38.821Z,1021.38
2019-05-16T01:15:43.098Z,1021.37
2019-05-16T01:16:48.842Z,1021.39
2019-05-16T01:17:51.606Z,1021.39
2019-05-16T01:18:55.910Z,1021.36
2019-05-16T01:20:00.100Z,1021.34
2019-05-16T01:21:04.373Z,1021.34
2019-05-16T01:22:08.696Z,1021.36
2019-05-16T01:23:12.913Z,1021.35
2019-05-16T01:24:18.826Z,1021.39
2019-05-16T01:25:21.436Z,1021.36
2019-05-16T01:26:25.672Z,1021.39
2019-05-16T01:27:29.854Z,1021.39
2019-05-16T01:28:34.124Z,1021.39
2019-05-16T01:29:38.643Z,1021.35
2019-05-16T01:30:42.692Z,1021.37
2019-05-16T01:31:48.373Z,1021.35
2019-05-16T01:32:51.273Z,1021.31
2019-05-16T01:33:55.575Z,1021.33
2019-05-16T01:34:59.820Z,1021.29
2019-05-16T01:36:04.006Z,1021.28
2019-05-16T01:37:08.422Z,1021.28
2019-05-16T01:38:12.472Z,1021.30
2019-05-16T01:39:18.255Z,1021.23
2019-05-16T01:40:21.026Z,1021.25
2019-05-16T01:41:25.340Z,1021.24
2019-05-16T01:42:29.484Z,1021.22
2019-05-16T01:43:33.713Z,1021.21
2019-05-16T01:44:38.277Z,1021.19
2019-05-16T01:45:42.254Z,1021.18
2019-05-16T01:46:48.085Z,1021.14
2019-05-16T01:47:50.652Z,1021.15
2019-05-16T01:48:54.925Z,1021.14
2019-05-16T01:49:59.230Z,1021.14
2019-05-16T01:51:03.418Z,1021.14
2019-05-16T01:52:08.525Z,1021.12
2019-05-16T01:53:11.913Z,1021.10
2019-05-16T01:54:18.015Z,1021.11
2019-05-16T01:55:20.401Z,1021.09
2019-05-16T01:56:24.673Z,1021.10
2019-05-16T01:57:28.909Z,1021.05
2019-05-16T01:58:33.177Z,1021.07
2019-05-16T01:59:38.014Z,1021.06
2019-05-16T02:00:52.635Z,1021.04
2019-05-16T02:01:48.263Z,1021.04
2019-05-16T02:02:50.234Z,1021.02
2019-05-16T02:03:54.465Z,1021.02
2019-05-16T02:04:59.144Z,1020.97
2019-05-16T02:06:03.046Z,1020.97
2019-05-16T02:07:08.630Z,1020.93
2019-05-16T02:08:11.493Z,1020.93
2019-05-16T02:09:15.753Z,1020.88
2019-05-16T02:10:20.103Z,1020.86
2019-05-16T02:11:24.362Z,1020.85
2019-05-16T02:12:28.499Z,1020.82
2019-05-16T02:13:32.825Z,1020.79
2019-05-16T02:14:38.752Z,1020.78
2019-05-16T02:15:41.292Z,1020.79
2019-05-16T02:16:47.654Z,1020.76
2019-05-16T02:17:49.810Z,1020.74
2019-05-16T02:18:54.039Z,1020.74
2019-05-16T02:19:58.272Z,1020.70
2019-05-16T02:21:02.525Z,1020.71
2019-05-16T02:22:08.757Z,1020.67
2019-05-16T02:23:10.961Z,1020.70
2019-05-16T02:24:15.300Z,1020.73
2019-05-16T02:25:19.445Z,1020.68
2019-05-16T02:26:23.680Z,1020.67
2019-05-16T02:27:28.778Z,1020.64
2019-05-16T02:28:39.734Z,1020.65
2019-05-16T02:29:36.499Z,1020.62
2019-05-16T02:30:42.156Z,1020.63
2019-05-16T02:31:45.013Z,1020.64
2019-05-16T02:32:52.237Z,1020.62
2019-05-16T02:33:53.463Z,1020.58
2019-05-16T02:35:00.905Z,1020.59
2019-05-16T02:36:02.140Z,1020.59
2019-05-16T02:37:22.603Z,1020.59
2019-05-16T02:38:11.354Z,1020.58
2019-05-16T02:39:14.673Z,1020.55
2019-05-16T02:40:21.055Z,1020.55
2019-05-16T02:41:23.203Z,1020.55
2019-05-16T02:42:30.713Z,1020.51
2019-05-16T02:43:31.754Z,1020.49
2019-05-16T02:44:35.952Z,1020.48
2019-05-16T02:45:41.484Z,1020.43
2019-05-16T02:46:44.400Z,1020.41
2019-05-16T02:47:51.309Z,1020.42
2019-05-16T02:48:52.930Z,1020.41
2019-05-16T02:49:57.213Z,1020.38
2019-05-16T02:51:02.040Z,1020.35
2019-05-16T02:52:05.727Z,1020.34
2019-05-16T02:53:12.766Z,1020.32
2019-05-16T02:54:14.177Z,1020.24
2019-05-16T02:55:21.362Z,1020.30
2019-05-16T02:56:22.649Z,1020.33
2019-05-16T02:57:26.836Z,1020.34
2019-05-16T02:58:31.160Z,1020.33
2019-05-16T02:59:35.272Z,1020.32
2019-05-16T03:00:42.524Z,1020.29
2019-05-16T03:01:43.840Z,1020.31
2019-05-16T03:02:50.477Z,1020.30
2019-05-16T03:03:52.282Z,1020.28
2019-05-16T03:04:56.599Z,1020.28
2019-05-16T03:06:01.572Z,1020.32
2019-05-16T03:07:05.156Z,1020.27
2019-05-16T03:08:12.114Z,1020.29
2019-05-16T03:09:13.706Z,1020.28
2019-05-16T03:10:20.385Z,1020.25
2019-05-16T03:11:22.121Z,1020.25
2019-05-16T03:12:26.370Z,1020.24
2019-05-16T03:13:31.195Z,1020.20
2019-05-16T03:14:34.944Z,1020.25
2019-05-16T03:15:40.708Z,1020.21
2019-05-16T03:16:43.492Z,1020.22
2019-05-16T03:17:50.629Z,1020.24
2019-05-16T03:18:51.837Z,1020.24
2019-05-16T03:19:56.093Z,1020.23
2019-05-16T03:21:00.662Z,1020.23
2019-05-16T03:22:04.555Z,1020.21
2019-05-16T03:23:11.291Z,1020.20
2019-05-16T03:24:13.045Z,1020.19
2019-05-16T03:25:17.270Z,1020.20
2019-05-16T03:26:21.638Z,1020.17
2019-05-16T03:27:25.862Z,1020.15
2019-05-16T03:28:30.799Z,1020.13
2019-05-16T03:29:35.196Z,1020.12
2019-05-16T03:30:44.801Z,1020.13
2019-05-16T03:31:45.042Z,1020.14
2019-05-16T03:32:47.688Z,1020.11
2019-05-16T03:33:58.966Z,1020.07
2019-05-16T03:34:56.145Z,1020.05
2019-05-16T03:36:04.460Z,1020.03
2019-05-16T03:37:05.170Z,1020.00
2019-05-16T03:38:11.843Z,1019.98
2019-05-16T03:39:13.134Z,1019.98
2019-05-16T03:40:17.314Z,1019.94
2019-05-16T03:41:21.849Z,1019.95
2019-05-16T03:42:25.887Z,1019.95
2019-05-16T03:43:30.925Z,1019.94
2019-05-16T03:44:34.323Z,1019.95
2019-05-16T03:45:41.667Z,1019.92
2019-05-16T03:46:42.815Z,1019.91
2019-05-16T03:47:47.042Z,1019.91
2019-05-16T03:48:52.145Z,1019.87
2019-05-16T03:49:55.545Z,1019.90
2019-05-16T03:51:00.815Z,1019.86
2019-05-16T03:52:04.119Z,1019.88
2019-05-16T03:53:11.374Z,1019.88
2019-05-16T03:54:12.831Z,1019.88
2019-05-16T03:55:16.878Z,1019.86
2019-05-16T03:56:22.084Z,1019.84
2019-05-16T03:57:25.387Z,1019.83
2019-05-16T03:58:31.058Z,1019.83
2019-05-16T03:59:33.920Z,1019.81
2019-05-16T04:00:45.310Z,1019.79
2019-05-16T04:01:42.361Z,1019.76
2019-05-16T04:02:46.705Z,1019.74
2019-05-16T04:03:51.446Z,1019.73
2019-05-16T04:04:55.096Z,1019.72
2019-05-16T04:06:01.128Z,1019.70
2019-05-16T04:07:03.657Z,1019.68
2019-05-16T04:08:14.766Z,1019.68
2019-05-16T04:09:12.675Z,1019.67
2019-05-16T04:10:16.272Z,1019.61
2019-05-16T04:11:23.381Z,1019.61
2019-05-16T04:12:30.665Z,1019.60
2019-05-16T04:13:31.649Z,1019.58
2019-05-16T04:14:35.345Z,1019.57
2019-05-16T04:15:40.821Z,1019.59
2019-05-16T04:16:43.786Z,1019.59
2019-05-16T04:17:51.053Z,1019.58
2019-05-16T04:18:52.241Z,1019.60
2019-05-16T04:19:56.547Z,1019.58
2019-05-16T04:21:01.238Z,1019.57
2019-05-16T04:22:05.003Z,1019.57
2019-05-16T04:23:11.199Z,1019.54
2019-05-16T04:24:13.493Z,1019.52
2019-05-16T04:25:17.695Z,1019.50
2019-05-16T04:26:22.129Z,1019.48
2019-05-16T04:27:26.179Z,1019.50
2019-05-16T04:28:31.848Z,1019.50
2019-05-16T04:29:34.622Z,1019.51
2019-05-16T04:30:41.562Z,1019.44
2019-05-16T04:31:43.126Z,1019.46
2019-05-16T04:32:47.439Z,1019.41
2019-05-16T04:33:52.030Z,1019.41
2019-05-16T04:34:55.802Z,1019.36
2019-05-16T04:36:01.294Z,1019.32
2019-05-16T04:37:04.340Z,1019.31
2019-05-16T04:38:11.346Z,1019.32
2019-05-16T04:39:12.882Z,1019.27
2019-05-16T04:40:17.162Z,1019.25
2019-05-16T04:41:21.647Z,1019.22
2019-05-16T04:42:25.593Z,1019.20
2019-05-16T04:43:31.585Z,1019.18
2019-05-16T04:44:34.195Z,1019.18
2019-05-16T04:45:41.391Z,1019.20
2019-05-16T04:46:42.617Z,1019.21
2019-05-16T04:47:46.935Z,1019.23
2019-05-16T04:48:51.335Z,1019.25
2019-05-16T04:49:55.398Z,1019.23
2019-05-16T04:51:01.369Z,1019.24
2019-05-16T04:52:04.009Z,1019.26
2019-05-16T04:53:11.358Z,1019.22
2019-05-16T04:54:12.418Z,1019.20
2019-05-16T04:55:16.644Z,1019.18
2019-05-16T04:56:21.927Z,1019.18
2019-05-16T04:57:25.122Z,1019.18
2019-05-16T04:58:31.740Z,1019.18
2019-05-16T04:59:33.737Z,1019.16
2019-05-16T05:00:37.988Z,1019.14
2019-05-16T05:01:42.209Z,1019.18
2019-05-16T05:02:46.495Z,1019.17
2019-05-16T05:04:02.148Z,1019.19
2019-05-16T05:04:54.924Z,1019.16
2019-05-16T05:06:01.258Z,1019.20
2019-05-16T05:07:03.473Z,1019.18
2019-05-16T05:08:10.661Z,1019.17
2019-05-16T05:09:11.994Z,1019.18
2019-05-16T05:10:16.097Z,1019.20
2019-05-16T05:11:21.573Z,1019.25
2019-05-16T05:12:24.589Z,1019.26
2019-05-16T05:13:30.642Z,1019.25
2019-05-16T05:14:33.082Z,1019.27
2019-05-16T05:15:39.945Z,1019.30
2019-05-16T05:16:41.623Z,1019.26
2019-05-16T05:17:45.797Z,1019.29
2019-05-16T05:18:51.422Z,1019.30
2019-05-16T05:19:54.295Z,1019.25
2019-05-16T05:21:00.951Z,1019.29
2019-05-16T05:22:02.869Z,1019.27
2019-05-16T05:23:07.023Z,1019.29
2019-05-16T05:24:11.318Z,1019.29
2019-05-16T05:25:15.568Z,1019.31
2019-05-16T05:26:20.058Z,1019.23
2019-05-16T05:27:23.979Z,1019.31
2019-05-16T05:28:29.989Z,1019.28
2019-05-16T05:29:32.445Z,1019.29
2019-05-16T05:30:36.641Z,1019.30
2019-05-16T05:31:44.731Z,1019.27
2019-05-16T05:32:45.116Z,1019.26
2019-05-16T05:33:50.672Z,1019.24
2019-05-16T05:34:53.578Z,1019.28
2019-05-16T05:35:57.756Z,1019.25
2019-05-16T05:37:02.041Z,1019.23
2019-05-16T05:38:06.247Z,1019.18
2019-05-16T05:39:14.685Z,1019.16
2019-05-16T05:40:14.741Z,1019.20
2019-05-16T05:41:19.879Z,1019.19
2019-05-16T05:42:23.280Z,1019.16
2019-05-16T05:43:27.450Z,1019.10
2019-05-16T05:44:34.728Z,1019.06
2019-05-16T05:45:40.064Z,1019.08
2019-05-16T05:46:42.263Z,1019.00
2019-05-16T05:47:46.440Z,1019.02
2019-05-16T05:48:50.791Z,1019.06
2019-05-16T05:49:54.941Z,1019.03
2019-05-16T05:51:00.190Z,1019.08
2019-05-16T05:52:03.394Z,1019.02
2019-05-16T05:53:10.072Z,1019.06
2019-05-16T05:54:11.851Z,1019.09
2019-05-16T05:55:16.138Z,1019.09
2019-05-16T05:56:20.403Z,1019.07
2019-05-16T05:57:24.598Z,1019.05
2019-05-16T05:58:30.735Z,1018.98
2019-05-16T05:59:33.078Z,1018.99
2019-05-16T06:00:37.324Z,1018.95
2019-05-16T06:01:41.651Z,1018.93
2019-05-16T06:02:45.912Z,1018.92
2019-05-16T06:03:50.655Z,1018.93
2019-05-16T06:04:54.324Z,1018.91
2019-05-16T06:06:00.871Z,1018.87
2019-05-16T06:07:02.876Z,1018.87
2019-05-16T06:08:07.007Z,1018.88
2019-05-16T06:09:25.369Z,1018.89
2019-05-16T06:10:15.548Z,1018.91
2019-05-16T06:11:20.553Z,1018.91
2019-05-16T06:12:24.037Z,1018.87
2019-05-16T06:13:30.815Z,1018.87
2019-05-16T06:14:32.552Z,1018.86
2019-05-16T06:15:36.811Z,1018.86
2019-05-16T06:16:41.110Z,1018.83
2019-05-16T06:17:45.286Z,1018.82
2019-05-16T06:18:50.306Z,1018.76
2019-05-16T06:19:53.863Z,1018.78
2019-05-16T06:21:00.255Z,1018.79
2019-05-16T06:22:02.327Z,1018.74
2019-05-16T06:23:06.644Z,1018.74
2019-05-16T06:24:10.913Z,1018.74
2019-05-16T06:25:15.205Z,1018.75
2019-05-16T06:26:20.387Z,1018.79
2019-05-16T06:27:23.575Z,1018.79
2019-05-16T06:28:30.271Z,1018.83
2019-05-16T06:29:32.049Z,1018.84
2019-05-16T06:30:36.367Z,1018.81
2019-05-16T06:31:40.774Z,1018.84
2019-05-16T06:32:44.869Z,1018.84
2019-05-16T06:33:50.223Z,1018.86
2019-05-16T06:34:53.326Z,1018.76
2019-05-16T06:36:00.103Z,1018.72
2019-05-16T06:37:01.946Z,1018.71
2019-05-16T06:38:06.141Z,1018.70
2019-05-16T06:39:11.482Z,1018.69
2019-05-16T06:40:14.643Z,1018.67
2019-05-16T06:41:19.907Z,1018.62
2019-05-16T06:42:23.169Z,1018.60
2019-05-16T06:43:29.869Z,1018.57
2019-05-16T06:44:31.664Z,1018.55
2019-05-16T06:45:35.948Z,1018.52
2019-05-16T06:46:56.385Z,1018.53
2019-05-16T06:47:44.522Z,1018.54
2019-05-16T06:48:50.635Z,1018.50
2019-05-16T06:49:53.025Z,1018.48
2019-05-16T06:50:57.209Z,1018.43
2019-05-16T06:52:01.429Z,1018.48
2019-05-16T06:53:05.685Z,1018.46
2019-05-16T06:54:10.300Z,1018.43
2019-05-16T06:55:14.250Z,1018.42
2019-05-16T06:56:19.966Z,1018.42
2019-05-16T06:57:22.710Z,1018.39
2019-05-16T06:58:26.960Z,1018.38
2019-05-16T06:59:31.213Z,1018.39
2019-05-16T07:00:35.455Z,1018.38
2019-05-16T07:01:40.466Z,1018.37
2019-05-16T07:02:43.960Z,1018.37
2019-05-16T07:03:50.597Z,1018.31
2019-05-16T07:04:52.511Z,1018.33
2019-05-16T07:05:56.697Z,1018.33
2019-05-16T07:07:03.032Z,1018.31
2019-05-16T07:08:05.329Z,1018.27
2019-05-16T07:09:10.510Z,1018.24
2019-05-16T07:10:13.846Z,1018.22
2019-05-16T07:11:20.162Z,1018.22
2019-05-16T07:12:22.387Z,1018.22
2019-05-16T07:13:26.600Z,1018.22
2019-05-16T07:14:31.464Z,1018.18
2019-05-16T07:15:35.168Z,1018.17
2019-05-16T07:16:40.558Z,1018.15
2019-05-16T07:17:43.759Z,1018.12
2019-05-16T07:18:50.381Z,1018.18
2019-05-16T07:19:52.167Z,1018.17
2019-05-16T07:20:56.453Z,1018.16
2019-05-16T07:22:00.802Z,1018.17
2019-05-16T07:23:05.015Z,1018.15
2019-05-16T07:24:10.926Z,1018.10
2019-05-16T07:25:13.515Z,1018.05
2019-05-16T07:26:20.349Z,1018.06
2019-05-16T07:27:22.158Z,1018.06
2019-05-16T07:28:26.344Z,1018.07
2019-05-16T07:29:30.976Z,1018.09
2019-05-16T07:30:34.826Z,1018.09
2019-05-16T07:31:40.615Z,1018.07
2019-05-16T07:32:43.476Z,1018.01
2019-05-16T07:33:50.050Z,1018.03
2019-05-16T07:34:51.928Z,1018.04
2019-05-16T07:35:56.168Z,1018.09
2019-05-16T07:37:00.568Z,1018.11
2019-05-16T07:38:04.667Z,1018.04
2019-05-16T07:39:10.718Z,1018.02
2019-05-16T07:40:19.635Z,1018.01
2019-05-16T07:41:19.849Z,1018.00
2019-05-16T07:42:21.796Z,1017.99
2019-05-16T07:43:26.035Z,1017.96
2019-05-16T07:44:31.001Z,1017.95
2019-05-16T07:45:34.434Z,1017.92
2019-05-16T07:46:40.898Z,1017.87
2019-05-16T07:47:43.064Z,1017.84
2019-05-16T07:48:47.292Z,1017.78
2019-05-16T07:49:51.518Z,1017.76
2019-05-16T07:50:55.769Z,1017.70
2019-05-16T07:52:00.569Z,1017.71
2019-05-16T07:53:04.177Z,1017.74
2019-05-16T07:54:10.497Z,1017.76
2019-05-16T07:55:13.053Z,1017.80
2019-05-16T07:56:17.171Z,1017.84
2019-05-16T07:57:23.008Z,1017.83
2019-05-16T07:58:25.725Z,1017.82
2019-05-16T07:59:30.165Z,1017.76
2019-05-16T08:00:49.499Z,1017.77
2019-05-16T08:01:39.855Z,1017.75
2019-05-16T08:02:42.726Z,1017.77
2019-05-16T08:03:47.050Z,1017.77
2019-05-16T08:04:51.270Z,1017.79
2019-05-16T08:05:55.522Z,1017.79
2019-05-16T08:07:00.706Z,1017.83
2019-05-16T08:08:04.111Z,1017.83
2019-05-16T08:09:12.008Z,1017.82
2019-05-16T08:10:12.640Z,1017.81
2019-05-16T08:11:16.840Z,1017.79
2019-05-16T08:12:26.014Z,1017.81
2019-05-16T08:13:25.311Z,1017.82
2019-05-16T08:14:30.412Z,1017.81
2019-05-16T08:15:33.751Z,1017.81
2019-05-16T08:16:40.536Z,1017.83
2019-05-16T08:17:44.684Z,1017.78
2019-05-16T08:18:46.540Z,1017.78
2019-05-16T08:19:51.077Z,1017.70
2019-05-16T08:20:55.191Z,1017.70
2019-05-16T08:22:01.261Z,1017.73
2019-05-16T08:23:03.632Z,1017.74
2019-05-16T08:24:13.937Z,1017.75
2019-05-16T08:25:12.231Z,1017.77
2019-05-16T08:26:16.460Z,1017.79
2019-05-16T08:27:21.015Z,1017.76
2019-05-16T08:28:25.019Z,1017.70
2019-05-16T08:29:31.668Z,1017.72
2019-05-16T08:30:33.514Z,1017.67
2019-05-16T08:31:37.704Z,1017.70
2019-05-16T08:32:42.412Z,1017.73
2019-05-16T08:33:46.240Z,1017.69
2019-05-16T08:34:51.514Z,1017.66
2019-05-16T08:35:54.685Z,1017.64
2019-05-16T08:37:01.151Z,1017.64
2019-05-16T08:38:03.255Z,1017.62
2019-05-16T08:39:07.526Z,1017.57
2019-05-16T08:40:11.854Z,1017.54
2019-05-16T08:42:20.975Z,1017.49
2019-05-16T08:43:24.619Z,1017.50
2019-05-16T08:44:31.955Z,1017.54
2019-05-16T08:45:33.045Z,1017.56
2019-05-16T08:46:41.169Z,1017.56
2019-05-16T08:47:42.596Z,1017.56
2019-05-16T08:48:45.806Z,1017.53
2019-05-16T08:49:52.216Z,1017.49
2019-05-16T08:50:55.060Z,1017.44
2019-05-16T08:52:01.368Z,1017.44
2019-05-16T08:53:02.988Z,1017.43
2019-05-16T08:54:07.213Z,1017.40
2019-05-16T08:55:13.578Z,1017.34
2019-05-16T08:56:15.667Z,1017.35
2019-05-16T08:57:28.946Z,1017.36
2019-05-16T08:58:24.163Z,1017.35
2019-05-16T08:59:33.539Z,1017.31
2019-05-16T09:00:33.553Z,1017.31
2019-05-16T09:01:37.024Z,1017.27
2019-05-16T09:02:42.369Z,1017.21
2019-05-16T09:03:45.528Z,1017.18
2019-05-16T09:04:53.452Z,1017.13
2019-05-16T09:05:54.111Z,1017.09
2019-05-16T09:07:02.117Z,1017.07
2019-05-16T09:08:04.639Z,1017.07
2019-05-16T09:09:26.467Z,1017.10
2019-05-16T09:10:35.467Z,1017.47
2019-05-16T09:10:50.139Z,1017.11
2019-05-16T09:11:33.732Z,1017.10
2019-05-16T09:12:21.658Z,1017.08
2019-05-16T09:13:27.932Z,1017.06
2019-05-16T09:14:35.224Z,1017.07
2019-05-16T09:15:34.605Z,1017.09
2019-05-16T09:16:38.788Z,1017.13
2019-05-16T09:17:42.976Z,1017.11
2019-05-16T09:18:50.546Z,1017.12
2019-05-16T09:19:51.491Z,1017.09
2019-05-16T09:20:57.790Z,1017.10
2019-05-16T09:21:59.971Z,1017.14
2019-05-16T09:23:07.208Z,1017.09
2019-05-16T09:24:08.436Z,1017.09
2019-05-16T09:25:12.842Z,1017.09
2019-05-16T09:26:19.853Z,1017.12
2019-05-16T09:27:21.416Z,1017.13
2019-05-16T09:28:28.297Z,1017.10
2019-05-16T09:29:29.856Z,1017.09
2019-05-16T09:30:36.866Z,1017.08
2019-05-16T09:31:38.925Z,1017.06
2019-05-16T09:32:43.028Z,1017.07
2019-05-16T09:33:47.508Z,1017.06
2019-05-16T09:34:51.194Z,1017.08
2019-05-16T09:35:57.298Z,1017.06
2019-05-16T09:37:01.077Z,1017.05
2019-05-16T09:38:03.987Z,1017.06
2019-05-16T09:39:08.563Z,1017.04
2019-05-16T09:40:12.553Z,1017.01
2019-05-16T09:41:17.046Z,1017.00
2019-05-16T09:42:21.087Z,1016.98
2019-05-16T09:43:28.103Z,1016.95
2019-05-16T09:44:29.560Z,1016.90
2019-05-16T09:45:33.903Z,1016.92
2019-05-16T09:46:38.145Z,1016.92
2019-05-16T09:47:42.373Z,1016.93
2019-05-16T09:48:47.735Z,1016.90
2019-05-16T09:49:50.860Z,1016.98
2019-05-16T09:50:57.756Z,1016.92
2019-05-16T09:51:59.371Z,1016.94
2019-05-16T09:53:03.608Z,1016.92
2019-05-16T09:54:07.865Z,1016.88
2019-05-16T09:55:12.086Z,1016.80
2019-05-16T09:56:16.823Z,1016.76
2019-05-16T09:57:20.675Z,1016.73
2019-05-16T09:58:27.234Z,1016.69
2019-05-16T09:59:29.282Z,1016.72
2019-05-16T10:00:33.456Z,1016.68
2019-05-16T10:01:37.714Z,1016.73
2019-05-16T10:02:41.969Z,1016.68
2019-05-16T10:03:47.796Z,1016.64
2019-05-16T10:04:50.538Z,1016.60
2019-05-16T10:05:57.181Z,1016.61
2019-05-16T10:06:59.037Z,1016.61
2019-05-16T10:08:03.251Z,1016.56
2019-05-16T10:09:07.505Z,1016.53
2019-05-16T10:10:11.829Z,1016.50
2019-05-16T10:11:18.139Z,1016.45
2019-05-16T10:12:20.310Z,1016.45
2019-05-16T10:13:27.287Z,1016.42
2019-05-16T10:14:28.858Z,1016.36
2019-05-16T10:15:33.202Z,1016.35
2019-05-16T10:16:37.491Z,1016.27
2019-05-16T10:17:41.700Z,1016.18
2019-05-16T10:18:47.573Z,1016.17
2019-05-16T10:19:50.297Z,1016.21
2019-05-16T10:20:58.977Z,1016.15
2019-05-16T10:22:00.313Z,1016.16
2019-05-16T10:23:03.313Z,1016.15
2019-05-16T10:24:07.491Z,1016.11
2019-05-16T10:25:11.666Z,1016.09
2019-05-16T10:26:17.230Z,1016.07
2019-05-16T10:27:20.245Z,1016.09
2019-05-16T10:28:27.048Z,1016.01
2019-05-16T10:29:28.723Z,1016.02
2019-05-16T10:30:33.003Z,1016.00
2019-05-16T10:31:45.757Z,1015.96
2019-05-16T10:32:41.629Z,1015.95
2019-05-16T10:33:47.807Z,1015.94
2019-05-16T10:34:50.203Z,1015.93
2019-05-16T10:35:54.510Z,1015.94
2019-05-16T10:36:58.812Z,1015.93
2019-05-16T10:38:03.081Z,1015.90
2019-05-16T10:39:07.824Z,1015.86
2019-05-16T10:40:11.659Z,1015.84
2019-05-16T10:41:18.929Z,1015.78
2019-05-16T10:42:28.513Z,1015.79
2019-05-16T10:43:26.704Z,1015.74
2019-05-16T10:44:30.887Z,1015.71
2019-05-16T10:45:36.891Z,1015.70
2019-05-16T10:46:39.452Z,1015.65
2019-05-16T10:47:43.833Z,1015.62
2019-05-16T10:48:48.069Z,1015.55
2019-05-16T10:49:52.328Z,1015.58
2019-05-16T10:50:57.759Z,1015.56
2019-05-16T10:52:00.916Z,1015.54
2019-05-16T10:53:23.789Z,1015.54
2019-05-16T10:54:13.970Z,1015.49
2019-05-16T10:55:13.923Z,1015.50
2019-05-16T10:56:18.176Z,1015.49
2019-05-16T10:57:22.682Z,1015.50
2019-05-16T10:58:36.669Z,1015.47
2019-05-16T10:59:57.970Z,1015.44
2019-05-16T11:01:05.202Z,1015.40
2019-05-16T11:01:39.829Z,1015.37
2019-05-16T11:02:44.189Z,1015.37
2019-05-16T11:03:49.274Z,1015.34
2019-05-16T11:05:00.614Z,1015.34
2019-05-16T11:06:05.287Z,1015.34
2019-05-16T11:07:01.283Z,1015.31
2019-05-16T11:08:08.260Z,1015.32
2019-05-16T11:09:09.941Z,1015.28
2019-05-16T11:10:14.346Z,1015.24
2019-05-16T11:11:19.936Z,1015.24
2019-05-16T11:12:22.993Z,1015.20
2019-05-16T11:13:28.009Z,1015.23
2019-05-16T11:14:31.543Z,1015.17
2019-05-16T11:15:37.433Z,1015.13
2019-05-16T11:16:40.361Z,1015.12
2019-05-16T11:17:44.546Z,1015.10
2019-05-16T11:18:48.835Z,1015.20
2019-05-16T11:19:53.178Z,1015.15
2019-05-16T11:20:58.254Z,1015.15
2019-05-16T11:22:01.860Z,1015.16
2019-05-16T11:23:07.892Z,1015.10
2019-05-16T11:24:12.639Z,1015.10
2019-05-16T11:25:24.871Z,1015.10
2019-05-16T11:26:19.181Z,1015.04
2019-05-16T11:27:23.641Z,1015.07
2019-05-16T11:28:27.898Z,1015.00
2019-05-16T11:29:32.313Z,1015.03
2019-05-16T11:30:37.566Z,1014.97
2019-05-16T11:31:41.056Z,1014.95
2019-05-16T11:32:46.935Z,1014.95
2019-05-16T11:33:49.638Z,1014.96
2019-05-16T11:34:53.936Z,1014.98
2019-05-16T11:35:58.356Z,1014.95
2019-05-16T11:37:02.637Z,1014.94
2019-05-16T11:38:07.405Z,1014.94
2019-05-16T11:39:11.412Z,1014.91
2019-05-16T11:40:17.839Z,1014.82
2019-05-16T11:41:20.172Z,1014.87
2019-05-16T11:42:24.524Z,1014.89
2019-05-16T11:43:28.859Z,1014.93
2019-05-16T11:44:33.184Z,1014.83
2019-05-16T11:45:37.447Z,1014.82
2019-05-16T11:46:41.762Z,1014.85
2019-05-16T11:47:47.119Z,1014.83
2019-05-16T11:48:50.505Z,1014.77
2019-05-16T11:49:56.929Z,1014.79
2019-05-16T11:50:59.136Z,1014.74
2019-05-16T11:52:03.526Z,1014.73
2019-05-16T11:53:07.906Z,1014.76
2019-05-16T11:54:12.204Z,1014.75
2019-05-16T11:55:16.498Z,1014.75
2019-05-16T11:56:20.780Z,1014.75
2019-05-16T11:57:25.233Z,1014.77
2019-05-16T11:58:29.482Z,1014.72
2019-05-16T11:59:33.789Z,1014.72
2019-05-16T12:00:38.203Z,1014.73
2019-05-16T12:01:42.527Z,1014.72
2019-05-16T12:02:47.824Z,1014.75
2019-05-16T12:03:51.150Z,1014.75
2019-05-16T12:04:57.894Z,1014.75
2019-05-16T12:05:59.901Z,1014.71
2019-05-16T12:07:04.257Z,1014.74
2019-05-16T12:08:08.590Z,1014.71
2019-05-16T12:09:12.954Z,1014.71
2019-05-16T12:10:17.158Z,1014.72
2019-05-16T12:11:21.476Z,1014.75
2019-05-16T12:12:27.201Z,1014.76
2019-05-16T12:13:32.903Z,1014.77
2019-05-16T12:14:36.613Z,1014.78
2019-05-16T12:15:38.829Z,1014.77
2019-05-16T12:16:43.158Z,1014.88
2019-05-16T12:18:00.392Z,1014.85
2019-05-16T12:18:51.803Z,1014.88
2019-05-16T12:19:57.519Z,1014.92
2019-05-16T12:21:00.494Z,1014.91
2019-05-16T12:22:07.032Z,1014.89
2019-05-16T12:23:09.170Z,1014.89
2019-05-16T12:24:29.149Z,1014.87
2019-05-16T12:25:17.860Z,1014.89
2019-05-16T12:26:22.233Z,1014.87
2019-05-16T12:27:32.771Z,1014.89
2019-05-16T12:28:30.898Z,1014.89
2019-05-16T12:29:37.284Z,1014.88
2019-05-16T12:30:40.534Z,1014.87
2019-05-16T12:31:55.295Z,1014.78
2019-05-16T12:32:48.173Z,1014.74
2019-05-16T12:33:52.458Z,1014.76
2019-05-16T12:34:56.901Z,1014.75
2019-05-16T12:36:01.008Z,1014.75
2019-05-16T12:37:07.382Z,1014.79
2019-05-16T12:38:09.645Z,1014.86
2019-05-16T12:39:14.050Z,1014.90
2019-05-16T12:40:18.300Z,1014.88
2019-05-16T12:41:22.686Z,1014.90
2019-05-16T12:42:27.194Z,1014.89
2019-05-16T12:43:44.731Z,1014.88
2019-05-16T12:44:37.312Z,1014.88
2019-05-16T12:45:39.882Z,1014.89
2019-05-16T12:46:44.195Z,1014.87
2019-05-16T12:47:48.534Z,1014.86
2019-05-16T12:48:52.955Z,1014.89
2019-05-16T12:49:56.716Z,1014.85
2019-05-16T12:51:00.640Z,1014.91
2019-05-16T12:52:06.767Z,1014.88
2019-05-16T12:53:09.262Z,1014.84
2019-05-16T12:54:13.593Z,1014.91
2019-05-16T12:55:17.847Z,1014.88
2019-05-16T12:56:22.130Z,1014.88
2019-05-16T12:57:27.612Z,1014.88